sensor_id;sensor_type;location;lat;lon;timestamp;P1;P2;P0
55449;PMS5003;41318;58.724;50.180;2023-03-01T00:01:26;19.80;19.80;14.20
55449;PMS5003;41318;58.724;50.180;2023-03-01T00:03:57;1.40;1.40;1.00
55449;PMS5003;41318;58.724;50.180;2023-03-01T00:06:29;3.20;3.20;2.20
55449;PMS5003;41318;58.724;50.180;2023-03-01T00:09:00;0.00;0.00;0.00
55449;PMS5003;41318;58.724;50.180;2023-03-01T00:11:31;2.20;2.20;0.80
55449;PMS5003;41318;58.724;50.180;2023-03-01T00:14:03;25.60;25.60;19.20
55449;PMS5003;41318;58.724;50.180;2023-03-01T00:16:41;53.20;48.60;32.80
55449;PMS5003;41318;58.724;50.180;2023-03-01T00:19:13;8.20;8.20;6.20
55449;PMS5003;41318;58.724;50.180;2023-03-01T00:21:45;7.00;7.00;4.00
55449;PMS5003;41318;58.724;50.180;2023-03-01T00:24:16;7.20;7.20;3.20
55449;PMS5003;41318;58.724;50.180;2023-03-01T00:26:47;6.40;6.20;3.60
55449;PMS5003;41318;58.724;50.180;2023-03-01T00:29:37;24.60;24.60;18.60
55449;PMS5003;41318;58.724;50.180;2023-03-01T00:32:08;6.20;5.80;3.40
55449;PMS5003;41318;58.724;50.180;2023-03-01T00:34:39;4.00;4.00;3.20
55449;PMS5003;41318;58.724;50.180;2023-03-01T00:37:10;15.20;15.20;9.00
55449;PMS5003;41318;58.724;50.180;2023-03-01T00:39:59;5.20;5.20;3.40
55449;PMS5003;41318;58.724;50.180;2023-03-01T00:42:30;28.00;27.20;20.60
55449;PMS5003;41318;58.724;50.180;2023-03-01T00:45:01;13.40;13.40;8.20
55449;PMS5003;41318;58.724;50.180;2023-03-01T00:47:33;5.20;5.20;1.00
55449;PMS5003;41318;58.724;50.180;2023-03-01T00:50:05;48.80;46.60;32.40
55449;PMS5003;41318;58.724;50.180;2023-03-01T00:52:36;11.60;10.40;4.00
55449;PMS5003;41318;58.724;50.180;2023-03-01T00:55:07;14.80;13.60;10.60
55449;PMS5003;41318;58.724;50.180;2023-03-01T00:57:38;0.00;0.00;0.00
55449;PMS5003;41318;58.724;50.180;2023-03-01T01:00:10;1.00;1.00;0.00
55449;PMS5003;41318;58.724;50.180;2023-03-01T01:03:00;0.00;0.00;0.00
55449;PMS5003;41318;58.724;50.180;2023-03-01T01:05:33;0.00;0.00;0.00
55449;PMS5003;41318;58.724;50.180;2023-03-01T01:08:05;1.80;1.80;1.00
55449;PMS5003;41318;58.724;50.180;2023-03-01T01:10:37;0.60;0.60;0.00
55449;PMS5003;41318;58.724;50.180;2023-03-01T01:13:26;3.00;3.00;1.00
55449;PMS5003;41318;58.724;50.180;2023-03-01T01:16:01;1.00;1.00;1.00
55449;PMS5003;41318;58.724;50.180;2023-03-01T01:18:32;0.40;0.40;0.00
55449;PMS5003;41318;58.724;50.180;2023-03-01T01:21:05;3.60;3.60;3.00
55449;PMS5003;41318;58.724;50.180;2023-03-01T01:23:37;3.40;3.40;1.80
55449;PMS5003;41318;58.724;50.180;2023-03-01T01:26:28;8.60;8.60;4.80
55449;PMS5003;41318;58.724;50.180;2023-03-01T01:29:00;16.20;15.80;12.40
55449;PMS5003;41318;58.724;50.180;2023-03-01T01:31:32;4.00;4.00;3.00
55449;PMS5003;41318;58.724;50.180;2023-03-01T01:34:04;4.60;4.20;2.80
55449;PMS5003;41318;58.724;50.180;2023-03-01T01:36:36;5.80;5.80;3.80
55449;PMS5003;41318;58.724;50.180;2023-03-01T01:39:08;0.80;0.80;0.80
55449;PMS5003;41318;58.724;50.180;2023-03-01T01:41:43;6.00;6.00;4.00
55449;PMS5003;41318;58.724;50.180;2023-03-01T01:46:50;1.00;1.00;1.00
55449;PMS5003;41318;58.724;50.180;2023-03-01T01:49:25;7.00;7.00;5.60
55449;PMS5003;41318;58.724;50.180;2023-03-01T01:52:26;32.80;32.60;25.00
55449;PMS5003;41318;58.724;50.180;2023-03-01T01:55:08;66.00;56.40;39.00
55449;PMS5003;41318;58.724;50.180;2023-03-01T01:57:46;34.00;31.80;24.20
55449;PMS5003;41318;58.724;50.180;2023-03-01T02:00:21;27.60;27.60;20.00
55449;PMS5003;41318;58.724;50.180;2023-03-01T02:03:07;30.20;26.20;14.60
55449;PMS5003;41318;58.724;50.180;2023-03-01T02:05:47;10.00;10.00;6.60
55449;PMS5003;41318;58.724;50.180;2023-03-01T02:08:23;6.00;6.00;5.20
55449;PMS5003;41318;58.724;50.180;2023-03-01T02:10:56;11.80;11.80;8.60
55449;PMS5003;41318;58.724;50.180;2023-03-01T02:13:47;11.00;11.00;8.00
55449;PMS5003;41318;58.724;50.180;2023-03-01T02:16:19;18.40;18.40;12.80
55449;PMS5003;41318;58.724;50.180;2023-03-01T02:18:51;19.80;19.80;15.20
55449;PMS5003;41318;58.724;50.180;2023-03-01T02:21:41;22.00;19.40;11.20
55449;PMS5003;41318;58.724;50.180;2023-03-01T02:24:26;21.40;21.40;15.00
55449;PMS5003;41318;58.724;50.180;2023-03-01T02:27:02;11.60;11.60;8.60
55449;PMS5003;41318;58.724;50.180;2023-03-01T02:29:33;24.60;24.40;18.00
55449;PMS5003;41318;58.724;50.180;2023-03-01T02:32:04;24.00;24.00;17.20
55449;PMS5003;41318;58.724;50.180;2023-03-01T02:34:35;13.40;13.00;9.80
55449;PMS5003;41318;58.724;50.180;2023-03-01T02:37:11;13.00;13.00;10.00
55449;PMS5003;41318;58.724;50.180;2023-03-01T02:39:48;14.60;14.60;12.40
55449;PMS5003;41318;58.724;50.180;2023-03-01T02:42:22;21.60;20.20;14.40
55449;PMS5003;41318;58.724;50.180;2023-03-01T02:44:54;5.00;5.00;4.40
55449;PMS5003;41318;58.724;50.180;2023-03-01T02:47:25;15.80;15.80;15.20
55449;PMS5003;41318;58.724;50.180;2023-03-01T02:49:57;55.20;49.40;33.80
55449;PMS5003;41318;58.724;50.180;2023-03-01T02:55:09;81.00;67.00;45.25
55449;PMS5003;41318;58.724;50.180;2023-03-01T02:57:43;6.80;6.80;6.00
55449;PMS5003;41318;58.724;50.180;2023-03-01T03:00:19;0.00;0.00;0.00
55449;PMS5003;41318;58.724;50.180;2023-03-01T03:02:53;0.40;0.40;0.00
55449;PMS5003;41318;58.724;50.180;2023-03-01T03:05:28;0.00;0.00;0.00
55449;PMS5003;41318;58.724;50.180;2023-03-01T03:08:03;0.00;0.00;0.00
55449;PMS5003;41318;58.724;50.180;2023-03-01T03:10:40;0.60;0.60;0.40
55449;PMS5003;41318;58.724;50.180;2023-03-01T03:13:13;3.00;3.00;3.00
55449;PMS5003;41318;58.724;50.180;2023-03-01T03:15:44;1.00;1.00;1.00
55449;PMS5003;41318;58.724;50.180;2023-03-01T03:18:16;2.60;2.60;1.00
55449;PMS5003;41318;58.724;50.180;2023-03-01T03:21:09;7.40;7.40;6.80
55449;PMS5003;41318;58.724;50.180;2023-03-01T03:23:42;9.80;9.40;4.00
55449;PMS5003;41318;58.724;50.180;2023-03-01T03:26:13;5.20;4.00;1.80
55449;PMS5003;41318;58.724;50.180;2023-03-01T03:28:45;5.20;5.20;4.00
55449;PMS5003;41318;58.724;50.180;2023-03-01T03:31:17;3.00;3.00;3.00
55449;PMS5003;41318;58.724;50.180;2023-03-01T03:34:06;3.20;3.00;1.00
55449;PMS5003;41318;58.724;50.180;2023-03-01T03:36:37;6.80;6.80;6.00
55449;PMS5003;41318;58.724;50.180;2023-03-01T03:39:08;6.00;6.00;4.50
55449;PMS5003;41318;58.724;50.180;2023-03-01T03:41:39;1.20;1.20;0.60
55449;PMS5003;41318;58.724;50.180;2023-03-01T03:44:28;0.00;0.00;0.00
55449;PMS5003;41318;58.724;50.180;2023-03-01T03:46:59;0.00;0.00;0.00
55449;PMS5003;41318;58.724;50.180;2023-03-01T03:49:30;1.00;1.00;1.00
55449;PMS5003;41318;58.724;50.180;2023-03-01T03:52:01;1.50;1.00;0.00
55449;PMS5003;41318;58.724;50.180;2023-03-01T03:54:51;1.00;0.40;0.00
55449;PMS5003;41318;58.724;50.180;2023-03-01T03:57:22;3.00;3.00;1.00
55449;PMS5003;41318;58.724;50.180;2023-03-01T03:59:53;8.60;7.80;4.40
55449;PMS5003;41318;58.724;50.180;2023-03-01T04:02:42;9.80;9.80;7.00
55449;PMS5003;41318;58.724;50.180;2023-03-01T04:05:16;3.00;3.00;1.00
55449;PMS5003;41318;58.724;50.180;2023-03-01T04:07:49;7.80;7.80;5.20
55449;PMS5003;41318;58.724;50.180;2023-03-01T04:10:34;3.00;3.00;3.00
55449;PMS5003;41318;58.724;50.180;2023-03-01T04:13:10;1.00;1.00;1.00
55449;PMS5003;41318;58.724;50.180;2023-03-01T04:16:03;3.00;3.00;1.00
55449;PMS5003;41318;58.724;50.180;2023-03-01T04:18:55;0.60;0.60;0.60
55449;PMS5003;41318;58.724;50.180;2023-03-01T04:21:30;1.00;1.00;1.00
55449;PMS5003;41318;58.724;50.180;2023-03-01T04:24:22;4.00;4.00;3.00
55449;PMS5003;41318;58.724;50.180;2023-03-01T04:26:55;3.60;3.60;2.20
55449;PMS5003;41318;58.724;50.180;2023-03-01T04:29:48;6.60;6.60;3.60
55449;PMS5003;41318;58.724;50.180;2023-03-01T04:32:19;3.00;3.00;2.20
55449;PMS5003;41318;58.724;50.180;2023-03-01T04:34:52;5.40;5.40;2.60
55449;PMS5003;41318;58.724;50.180;2023-03-01T04:37:26;4.00;3.80;0.80
55449;PMS5003;41318;58.724;50.180;2023-03-01T04:42:59;3.40;2.60;1.80
55449;PMS5003;41318;58.724;50.180;2023-03-01T04:45:33;3.40;3.40;3.40
55449;PMS5003;41318;58.724;50.180;2023-03-01T04:48:06;0.40;0.40;0.00
55449;PMS5003;41318;58.724;50.180;2023-03-01T04:50:39;1.00;1.00;1.00
55449;PMS5003;41318;58.724;50.180;2023-03-01T04:53:12;3.00;3.00;2.60
55449;PMS5003;41318;58.724;50.180;2023-03-01T04:55:44;10.40;10.00;7.00
55449;PMS5003;41318;58.724;50.180;2023-03-01T04:58:16;4.80;4.80;3.00
55449;PMS5003;41318;58.724;50.180;2023-03-01T05:00:49;1.00;1.00;0.60
55449;PMS5003;41318;58.724;50.180;2023-03-01T05:03:22;3.00;3.00;1.00
55449;PMS5003;41318;58.724;50.180;2023-03-01T05:05:54;5.20;5.20;3.60
55449;PMS5003;41318;58.724;50.180;2023-03-01T05:08:30;7.40;7.40;6.00
55449;PMS5003;41318;58.724;50.180;2023-03-01T05:11:05;3.40;3.40;3.20
55449;PMS5003;41318;58.724;50.180;2023-03-01T05:13:40;17.60;17.60;13.00
55449;PMS5003;41318;58.724;50.180;2023-03-01T05:16:12;6.20;6.20;4.80
55449;PMS5003;41318;58.724;50.180;2023-03-01T05:18:44;9.40;9.00;6.00
55449;PMS5003;41318;58.724;50.180;2023-03-01T05:21:36;7.80;7.40;5.20
55449;PMS5003;41318;58.724;50.180;2023-03-01T05:24:31;4.40;4.40;4.00
55449;PMS5003;41318;58.724;50.180;2023-03-01T05:27:02;3.00;3.00;1.00
55449;PMS5003;41318;58.724;50.180;2023-03-01T05:29:34;3.40;3.40;2.20
55449;PMS5003;41318;58.724;50.180;2023-03-01T05:32:07;6.60;6.60;6.00
55449;PMS5003;41318;58.724;50.180;2023-03-01T05:34:39;4.00;4.00;3.00
55449;PMS5003;41318;58.724;50.180;2023-03-01T05:37:29;9.20;9.20;9.00
55449;PMS5003;41318;58.724;50.180;2023-03-01T05:40:19;0.80;0.80;0.00
55449;PMS5003;41318;58.724;50.180;2023-03-01T05:42:55;2.20;2.20;1.00
55449;PMS5003;41318;58.724;50.180;2023-03-01T05:45:27;0.00;0.00;0.00
55449;PMS5003;41318;58.724;50.180;2023-03-01T05:48:16;3.00;3.00;3.00
55449;PMS5003;41318;58.724;50.180;2023-03-01T05:50:49;3.00;3.00;1.00
55449;PMS5003;41318;58.724;50.180;2023-03-01T05:53:20;3.00;3.00;1.00
55449;PMS5003;41318;58.724;50.180;2023-03-01T05:55:51;2.50;2.50;1.00
55449;PMS5003;41318;58.724;50.180;2023-03-01T05:58:22;3.60;3.60;2.20
55449;PMS5003;41318;58.724;50.180;2023-03-01T06:00:54;0.00;0.00;0.00
55449;PMS5003;41318;58.724;50.180;2023-03-01T06:03:25;2.60;2.60;1.00
55449;PMS5003;41318;58.724;50.180;2023-03-01T06:05:56;5.50;5.50;3.00
55449;PMS5003;41318;58.724;50.180;2023-03-01T06:08:28;7.00;7.00;3.60
55449;PMS5003;41318;58.724;50.180;2023-03-01T06:11:17;11.60;11.60;7.00
55449;PMS5003;41318;58.724;50.180;2023-03-01T06:13:48;10.80;10.80;4.80
55449;PMS5003;41318;58.724;50.180;2023-03-01T06:16:19;4.40;4.40;3.40
55449;PMS5003;41318;58.724;50.180;2023-03-01T06:18:50;4.00;4.00;2.60
55449;PMS5003;41318;58.724;50.180;2023-03-01T06:21:21;4.00;3.40;1.00
55449;PMS5003;41318;58.724;50.180;2023-03-01T06:24:11;6.60;6.40;3.40
55449;PMS5003;41318;58.724;50.180;2023-03-01T06:26:42;3.60;3.00;1.00
55449;PMS5003;41318;58.724;50.180;2023-03-01T06:29:13;0.00;0.00;0.00
55449;PMS5003;41318;58.724;50.180;2023-03-01T06:31:45;3.00;3.00;1.00
55449;PMS5003;41318;58.724;50.180;2023-03-01T06:34:35;5.20;5.20;4.00
55449;PMS5003;41318;58.724;50.180;2023-03-01T06:37:26;1.80;1.80;1.00
55449;PMS5003;41318;58.724;50.180;2023-03-01T06:39:59;0.40;0.40;0.00
55449;PMS5003;41318;58.724;50.180;2023-03-01T06:42:36;25.20;24.40;16.00
55449;PMS5003;41318;58.724;50.180;2023-03-01T06:45:09;0.00;0.00;0.00
55449;PMS5003;41318;58.724;50.180;2023-03-01T06:47:42;1.40;1.40;0.60
55449;PMS5003;41318;58.724;50.180;2023-03-01T06:50:15;1.40;1.40;1.00
55449;PMS5003;41318;58.724;50.180;2023-03-01T06:52:48;0.00;0.00;0.00
55449;PMS5003;41318;58.724;50.180;2023-03-01T06:55:27;3.40;3.40;2.60
55449;PMS5003;41318;58.724;50.180;2023-03-01T06:58:00;6.00;6.00;3.60
55449;PMS5003;41318;58.724;50.180;2023-03-01T07:00:33;5.60;4.80;3.00
55449;PMS5003;41318;58.724;50.180;2023-03-01T07:03:06;0.60;0.60;0.00
55449;PMS5003;41318;58.724;50.180;2023-03-01T07:05:57;3.80;3.80;3.00
55449;PMS5003;41318;58.724;50.180;2023-03-01T07:08:30;7.40;7.40;5.60
55449;PMS5003;41318;58.724;50.180;2023-03-01T07:11:03;7.80;7.80;6.00
55449;PMS5003;41318;58.724;50.180;2023-03-01T07:13:36;7.00;7.00;6.00
55449;PMS5003;41318;58.724;50.180;2023-03-01T07:16:28;7.20;7.00;2.40
55449;PMS5003;41318;58.724;50.180;2023-03-01T07:19:01;7.60;7.00;2.20
55449;PMS5003;41318;58.724;50.180;2023-03-01T07:21:33;5.00;5.00;4.00
55449;PMS5003;41318;58.724;50.180;2023-03-01T07:24:06;2.00;2.00;1.80
55449;PMS5003;41318;58.724;50.180;2023-03-01T07:26:38;5.60;4.40;2.40
55449;PMS5003;41318;58.724;50.180;2023-03-01T07:29:11;5.40;5.40;3.60
55449;PMS5003;41318;58.724;50.180;2023-03-01T07:31:44;8.40;8.40;5.80
55449;PMS5003;41318;58.724;50.180;2023-03-01T07:34:16;2.40;2.40;1.60
55449;PMS5003;41318;58.724;50.180;2023-03-01T07:36:48;4.00;4.00;2.00
55449;PMS5003;41318;58.724;50.180;2023-03-01T07:39:20;5.40;5.00;3.60
55449;PMS5003;41318;58.724;50.180;2023-03-01T07:41:54;2.40;1.00;1.00
55449;PMS5003;41318;58.724;50.180;2023-03-01T07:44:27;1.40;1.40;1.00
55449;PMS5003;41318;58.724;50.180;2023-03-01T07:47:00;0.80;0.80;0.00
55449;PMS5003;41318;58.724;50.180;2023-03-01T07:49:32;1.40;1.40;1.00
55449;PMS5003;41318;58.724;50.180;2023-03-01T07:52:03;4.40;4.40;2.80
55449;PMS5003;41318;58.724;50.180;2023-03-01T07:54:34;4.00;4.00;2.00
55449;PMS5003;41318;58.724;50.180;2023-03-01T07:57:04;2.00;2.00;1.00
55449;PMS5003;41318;58.724;50.180;2023-03-01T07:59:35;4.00;4.00;4.00
55449;PMS5003;41318;58.724;50.180;2023-03-01T08:02:07;6.50;6.50;4.50
55449;PMS5003;41318;58.724;50.180;2023-03-01T08:04:38;12.60;12.60;9.80
55449;PMS5003;41318;58.724;50.180;2023-03-01T08:07:09;8.50;8.50;7.00
55449;PMS5003;41318;58.724;50.180;2023-03-01T08:09:40;6.50;4.50;1.00
55449;PMS5003;41318;58.724;50.180;2023-03-01T08:12:10;13.00;12.00;7.00
55449;PMS5003;41318;58.724;50.180;2023-03-01T08:14:41;7.25;7.25;5.00
55449;PMS5003;41318;58.724;50.180;2023-03-01T08:17:30;4.80;4.80;2.40
55449;PMS5003;41318;58.724;50.180;2023-03-01T08:20:01;8.00;8.00;6.00
55449;PMS5003;41318;58.724;50.180;2023-03-01T08:22:33;16.00;14.80;7.80
55449;PMS5003;41318;58.724;50.180;2023-03-01T08:25:04;10.00;8.80;5.40
55449;PMS5003;41318;58.724;50.180;2023-03-01T08:27:35;5.00;5.00;4.00
55449;PMS5003;41318;58.724;50.180;2023-03-01T08:30:06;9.25;8.75;4.50
55449;PMS5003;41318;58.724;50.180;2023-03-01T08:32:56;10.20;7.80;4.40
55449;PMS5003;41318;58.724;50.180;2023-03-01T08:35:27;11.20;11.20;6.60
55449;PMS5003;41318;58.724;50.180;2023-03-01T08:37:58;7.75;7.00;4.00
55449;PMS5003;41318;58.724;50.180;2023-03-01T08:40:47;26.60;22.20;11.60
55449;PMS5003;41318;58.724;50.180;2023-03-01T08:43:18;16.00;16.00;8.75
55449;PMS5003;41318;58.724;50.180;2023-03-01T08:45:49;2.00;2.00;1.00
55449;PMS5003;41318;58.724;50.180;2023-03-01T08:48:20;3.25;3.25;2.25
55449;PMS5003;41318;58.724;50.180;2023-03-01T08:50:51;0.00;0.00;0.00
55449;PMS5003;41318;58.724;50.180;2023-03-01T08:53:22;15.00;15.00;5.25
55449;PMS5003;41318;58.724;50.180;2023-03-01T08:55:53;24.80;24.80;17.20
55449;PMS5003;41318;58.724;50.180;2023-03-01T08:58:23;38.25;38.25;29.25
55449;PMS5003;41318;58.724;50.180;2023-03-01T09:00:56;12.00;12.00;8.00
55449;PMS5003;41318;58.724;50.180;2023-03-01T09:03:27;14.00;14.00;9.00
55449;PMS5003;41318;58.724;50.180;2023-03-01T09:06:02;1.25;0.75;0.25
55449;PMS5003;41318;58.724;50.180;2023-03-01T09:08:36;31.40;31.00;18.20
55449;PMS5003;41318;58.724;50.180;2023-03-01T09:11:09;10.20;10.20;5.20
55449;PMS5003;41318;58.724;50.180;2023-03-01T09:13:40;0.60;0.60;0.00
55449;PMS5003;41318;58.724;50.180;2023-03-01T09:16:11;1.50;1.50;1.00
55449;PMS5003;41318;58.724;50.180;2023-03-01T09:18:43;0.40;0.40;0.00
55449;PMS5003;41318;58.724;50.180;2023-03-01T09:21:15;28.60;28.60;22.40
55449;PMS5003;41318;58.724;50.180;2023-03-01T09:23:46;8.00;8.00;5.20
55449;PMS5003;41318;58.724;50.180;2023-03-01T09:26:18;2.20;2.20;1.00
55449;PMS5003;41318;58.724;50.180;2023-03-01T09:28:50;7.00;7.00;5.20
55449;PMS5003;41318;58.724;50.180;2023-03-01T09:31:23;7.00;7.00;5.80
55449;PMS5003;41318;58.724;50.180;2023-03-01T09:33:54;13.00;13.00;10.00
55449;PMS5003;41318;58.724;50.180;2023-03-01T09:36:25;4.50;4.50;3.00
55449;PMS5003;41318;58.724;50.180;2023-03-01T09:38:57;1.00;1.00;1.00
55449;PMS5003;41318;58.724;50.180;2023-03-01T09:41:38;11.60;10.60;7.40
55449;PMS5003;41318;58.724;50.180;2023-03-01T09:46:51;3.20;3.20;2.00
55449;PMS5003;41318;58.724;50.180;2023-03-01T09:49:24;1.00;1.00;0.60
55449;PMS5003;41318;58.724;50.180;2023-03-01T09:51:57;1.20;1.20;1.00
55449;PMS5003;41318;58.724;50.180;2023-03-01T09:54:29;10.00;10.00;7.00
55449;PMS5003;41318;58.724;50.180;2023-03-01T09:57:05;1.00;1.00;1.00
55449;PMS5003;41318;58.724;50.180;2023-03-01T09:59:59;1.40;1.40;1.00
55449;PMS5003;41318;58.724;50.180;2023-03-01T10:02:44;11.00;11.00;8.00
55449;PMS5003;41318;58.724;50.180;2023-03-01T10:07:55;6.20;5.00;4.00
55449;PMS5003;41318;58.724;50.180;2023-03-01T10:10:46;4.00;4.00;2.00
55449;PMS5003;41318;58.724;50.180;2023-03-01T10:22:22;4.60;4.60;3.60
55449;PMS5003;41318;58.724;50.180;2023-03-01T10:24:56;10.80;10.80;9.40
55449;PMS5003;41318;58.724;50.180;2023-03-01T10:27:37;0.00;0.00;0.00
55449;PMS5003;41318;58.724;50.180;2023-03-01T10:32:44;1.80;1.80;1.20
55449;PMS5003;41318;58.724;50.180;2023-03-01T10:35:25;0.40;0.40;0.00
55449;PMS5003;41318;58.724;50.180;2023-03-01T10:38:06;0.80;0.80;0.00
55449;PMS5003;41318;58.724;50.180;2023-03-01T10:43:25;1.60;1.60;1.00
55449;PMS5003;41318;58.724;50.180;2023-03-01T10:45:57;1.00;1.00;0.80
55449;PMS5003;41318;58.724;50.180;2023-03-01T10:48:29;44.00;42.60;30.60
55449;PMS5003;41318;58.724;50.180;2023-03-01T10:53:33;1.00;1.00;1.00
55449;PMS5003;41318;58.724;50.180;2023-03-01T10:56:05;2.40;2.40;1.40
55449;PMS5003;41318;58.724;50.180;2023-03-01T10:58:37;8.00;8.00;5.80
55449;PMS5003;41318;58.724;50.180;2023-03-01T11:03:43;6.20;6.20;3.20
55449;PMS5003;41318;58.724;50.180;2023-03-01T11:08:46;8.60;8.60;7.00
55449;PMS5003;41318;58.724;50.180;2023-03-01T11:11:33;14.80;14.00;11.00
55449;PMS5003;41318;58.724;50.180;2023-03-01T11:14:06;5.00;4.80;2.00
55449;PMS5003;41318;58.724;50.180;2023-03-01T11:16:39;7.60;7.60;4.60
55449;PMS5003;41318;58.724;50.180;2023-03-01T11:21:53;4.40;4.40;1.60
55449;PMS5003;41318;58.724;50.180;2023-03-01T11:24:29;8.80;8.80;7.40
55449;PMS5003;41318;58.724;50.180;2023-03-01T11:27:03;21.80;20.80;13.80
55449;PMS5003;41318;58.724;50.180;2023-03-01T11:29:36;6.80;6.80;4.80
55449;PMS5003;41318;58.724;50.180;2023-03-01T11:32:08;8.40;8.40;6.60
55449;PMS5003;41318;58.724;50.180;2023-03-01T11:37:26;2.00;2.00;1.40
55449;PMS5003;41318;58.724;50.180;2023-03-01T11:42:50;10.40;10.40;7.60
55449;PMS5003;41318;58.724;50.180;2023-03-01T12:15:00;7.20;7.20;4.40
55449;PMS5003;41318;58.724;50.180;2023-03-01T12:20:15;3.40;3.40;1.80
55449;PMS5003;41318;58.724;50.180;2023-03-01T12:26:02;10.80;10.60;8.40
55449;PMS5003;41318;58.724;50.180;2023-03-01T12:34:25;14.00;14.00;10.00
55449;PMS5003;41318;58.724;50.180;2023-03-01T12:50:11;38.20;36.20;22.20
55449;PMS5003;41318;58.724;50.180;2023-03-01T12:53:21;50.00;45.40;26.60
55449;PMS5003;41318;58.724;50.180;2023-03-01T12:55:42;49.00;45.20;27.20
55449;PMS5003;41318;58.724;50.180;2023-03-01T13:15:16;40.80;39.20;25.00
55449;PMS5003;41318;58.724;50.180;2023-03-01T13:33:54;37.80;36.40;29.80
55449;PMS5003;41318;58.724;50.180;2023-03-01T13:39:00;38.40;38.40;28.40
55449;PMS5003;41318;58.724;50.180;2023-03-01T13:46:44;40.20;38.80;25.60
55449;PMS5003;41318;58.724;50.180;2023-03-01T13:53:04;34.60;33.20;26.20
55449;PMS5003;41318;58.724;50.180;2023-03-01T13:55:38;49.80;47.20;34.60
55449;PMS5003;41318;58.724;50.180;2023-03-01T13:58:22;41.00;40.60;29.80
55449;PMS5003;41318;58.724;50.180;2023-03-01T14:01:04;22.60;22.60;18.80
55449;PMS5003;41318;58.724;50.180;2023-03-01T14:03:40;21.20;20.20;14.40
55449;PMS5003;41318;58.724;50.180;2023-03-01T14:06:13;18.20;18.20;13.00
55449;PMS5003;41318;58.724;50.180;2023-03-01T14:08:46;6.40;6.40;4.40
55449;PMS5003;41318;58.724;50.180;2023-03-01T14:11:28;19.20;16.40;10.80
55449;PMS5003;41318;58.724;50.180;2023-03-01T14:17:04;1.00;1.00;0.00
55449;PMS5003;41318;58.724;50.180;2023-03-01T14:19:39;6.00;6.00;4.00
55449;PMS5003;41318;58.724;50.180;2023-03-01T14:22:20;9.80;9.80;6.00
55449;PMS5003;41318;58.724;50.180;2023-03-01T14:24:57;6.20;6.20;4.00
55449;PMS5003;41318;58.724;50.180;2023-03-01T14:27:51;4.00;4.00;3.00
55449;PMS5003;41318;58.724;50.180;2023-03-01T14:30:30;5.80;5.80;4.00
55449;PMS5003;41318;58.724;50.180;2023-03-01T14:33:04;3.40;3.40;1.40
55449;PMS5003;41318;58.724;50.180;2023-03-01T14:35:37;11.20;9.80;6.00
55449;PMS5003;41318;58.724;50.180;2023-03-01T14:38:19;11.60;11.60;7.00
55449;PMS5003;41318;58.724;50.180;2023-03-01T14:40:51;19.80;18.80;12.60
55449;PMS5003;41318;58.724;50.180;2023-03-01T14:43:26;64.40;49.80;28.60
55449;PMS5003;41318;58.724;50.180;2023-03-01T14:45:59;59.40;46.60;24.00
55449;PMS5003;41318;58.724;50.180;2023-03-01T14:48:30;17.00;16.20;1.00
55449;PMS5003;41318;58.724;50.180;2023-03-01T14:51:02;12.60;11.60;7.20
55449;PMS5003;41318;58.724;50.180;2023-03-01T14:53:35;5.60;5.00;2.60
55449;PMS5003;41318;58.724;50.180;2023-03-01T14:56:12;15.00;14.60;10.00
55449;PMS5003;41318;58.724;50.180;2023-03-01T14:58:44;18.00;18.00;12.20
55449;PMS5003;41318;58.724;50.180;2023-03-01T15:01:15;24.00;23.20;15.00
55449;PMS5003;41318;58.724;50.180;2023-03-01T15:04:06;29.60;29.00;16.80
55449;PMS5003;41318;58.724;50.180;2023-03-01T15:06:37;34.20;28.80;15.60
55449;PMS5003;41318;58.724;50.180;2023-03-01T15:09:15;23.80;23.80;12.20
55449;PMS5003;41318;58.724;50.180;2023-03-01T15:11:47;35.40;32.80;22.00
55449;PMS5003;41318;58.724;50.180;2023-03-01T15:17:21;55.60;48.60;30.60
55449;PMS5003;41318;58.724;50.180;2023-03-01T15:19:57;48.80;45.80;27.40
55449;PMS5003;41318;58.724;50.180;2023-03-01T15:22:28;38.40;36.60;21.00
55449;PMS5003;41318;58.724;50.180;2023-03-01T15:24:59;32.25;30.50;18.25
55449;PMS5003;41318;58.724;50.180;2023-03-01T15:27:31;28.80;26.00;15.00
55449;PMS5003;41318;58.724;50.180;2023-03-01T15:30:02;33.50;33.00;22.00
55449;PMS5003;41318;58.724;50.180;2023-03-01T15:32:35;24.00;21.20;14.40
55449;PMS5003;41318;58.724;50.180;2023-03-01T15:38:00;25.20;24.20;19.00
55449;PMS5003;41318;58.724;50.180;2023-03-01T15:40:32;55.20;49.00;30.40
55449;PMS5003;41318;58.724;50.180;2023-03-01T15:43:04;31.20;29.60;18.40
55449;PMS5003;41318;58.724;50.180;2023-03-01T15:45:35;41.80;39.00;23.60
55449;PMS5003;41318;58.724;50.180;2023-03-01T15:48:17;60.00;51.80;30.00
55449;PMS5003;41318;58.724;50.180;2023-03-01T15:51:09;59.20;50.20;28.60
55449;PMS5003;41318;58.724;50.180;2023-03-01T15:53:48;63.00;54.20;34.00
55449;PMS5003;41318;58.724;50.180;2023-03-01T15:56:20;40.60;38.60;18.60
55449;PMS5003;41318;58.724;50.180;2023-03-01T15:58:51;31.80;31.60;17.40
55449;PMS5003;41318;58.724;50.180;2023-03-01T16:01:41;27.20;24.40;13.00
55449;PMS5003;41318;58.724;50.180;2023-03-01T16:04:13;64.40;53.20;34.00
55449;PMS5003;41318;58.724;50.180;2023-03-01T16:06:51;60.20;49.60;26.20
55449;PMS5003;41318;58.724;50.180;2023-03-01T16:09:28;53.80;44.60;26.60
55449;PMS5003;41318;58.724;50.180;2023-03-01T16:11:59;66.40;52.80;30.00
55449;PMS5003;41318;58.724;50.180;2023-03-01T16:14:31;75.40;58.40;31.20
55449;PMS5003;41318;58.724;50.180;2023-03-01T16:17:04;61.40;50.00;30.40
55449;PMS5003;41318;58.724;50.180;2023-03-01T16:19:36;92.60;70.00;39.80
55449;PMS5003;41318;58.724;50.180;2023-03-01T16:22:09;69.00;56.80;33.60
55449;PMS5003;41318;58.724;50.180;2023-03-01T16:24:41;49.60;45.00;27.40
55449;PMS5003;41318;58.724;50.180;2023-03-01T16:27:12;44.80;39.80;26.60
55449;PMS5003;41318;58.724;50.180;2023-03-01T16:29:46;74.20;59.60;38.60
55449;PMS5003;41318;58.724;50.180;2023-03-01T16:32:17;67.40;55.80;31.40
55449;PMS5003;41318;58.724;50.180;2023-03-01T16:35:08;81.40;66.00;38.20
55449;PMS5003;41318;58.724;50.180;2023-03-01T16:37:40;58.60;51.40;32.20
55449;PMS5003;41318;58.724;50.180;2023-03-01T16:40:24;56.40;49.00;28.40
55449;PMS5003;41318;58.724;50.180;2023-03-01T16:42:58;37.40;31.00;16.40
55449;PMS5003;41318;58.724;50.180;2023-03-01T16:45:35;33.00;33.00;21.00
55449;PMS5003;41318;58.724;50.180;2023-03-01T16:48:06;46.20;42.40;25.00
55449;PMS5003;41318;58.724;50.180;2023-03-01T16:50:38;49.40;44.20;21.40
55449;PMS5003;41318;58.724;50.180;2023-03-01T16:53:09;38.60;34.00;18.20
55449;PMS5003;41318;58.724;50.180;2023-03-01T16:55:41;51.80;39.60;27.20
55449;PMS5003;41318;58.724;50.180;2023-03-01T16:58:16;65.80;54.60;33.20
55449;PMS5003;41318;58.724;50.180;2023-03-01T17:00:47;45.60;45.00;28.00
55449;PMS5003;41318;58.724;50.180;2023-03-01T17:03:19;28.20;27.00;19.00
55449;PMS5003;41318;58.724;50.180;2023-03-01T17:05:50;39.60;39.40;25.00
55449;PMS5003;41318;58.724;50.180;2023-03-01T17:08:22;39.00;37.80;24.00
55449;PMS5003;41318;58.724;50.180;2023-03-01T17:11:13;40.80;34.40;20.60
55449;PMS5003;41318;58.724;50.180;2023-03-01T17:13:45;34.00;31.40;20.20